NY06 weather

Gaines Valley Aviation Airport
Albion, New York, United States

Public forecast

Using degrees Fahrenheit for public forecast. Weather courtesy of forecast.io.

Closest aviation weather report (METAR) to Gaines Valley Aviation Airport

Closest report is Greater Rochester International Airport, 26.0 nm (48.1 km) ESE. Retrieved 2020/08/04 08:24 UTC (22 minutes ago):

KROC 040824Z 35003KT 10SM FEW008 SCT040 OVC085 19/19 A2992

Closest aviation forecast (TAF) to Gaines Valley Aviation Airport

Closest forecast is Greater Rochester International Airport, 26.0 nm (48.1 km) ESE. Retrieved 2020/08/04 06:36 UTC (2 hours ago):

TAF KROC 040535Z 0406/0506 13004KT P6SM SCT070 OVC140 FM041400 01004KT P6SM OVC050 FM041600 01005KT P6SM VCSH OVC040 FM042100 02004KT P6SM OVC060 FM050400 25007KT P6SM BKN050